createdAt,value
2023-08-20T00:01:25.023Z,101154.78
2023-08-20T00:04:11.247Z,101152.16
2023-08-20T00:06:57.018Z,101145.22
2023-08-20T00:09:42.711Z,101154.06
2023-08-20T00:12:28.065Z,101161.19
2023-08-20T00:15:14.250Z,101170.94
2023-08-20T00:18:00.017Z,101170.16
2023-08-20T00:20:46.866Z,101174.63
2023-08-20T00:23:32.504Z,101187.78
2023-08-20T00:26:18.521Z,101186.94
2023-08-20T00:29:04.614Z,101201.81
2023-08-20T00:31:50.110Z,101192.19
2023-08-20T00:34:35.837Z,101196.59
2023-08-20T00:37:21.561Z,101204.53
2023-08-20T00:40:07.736Z,101211.53
2023-08-20T00:42:54.617Z,101201.06
2023-08-20T00:45:44.663Z,101199.38
2023-08-20T00:48:31.054Z,101202.03
2023-08-20T00:51:16.556Z,101206.47
2023-08-20T00:54:04.131Z,101207.47
2023-08-20T00:56:51.223Z,101207.56
2023-08-20T00:59:38.094Z,101207.63
2023-08-20T01:02:24.118Z,101213.78
2023-08-20T01:05:12.786Z,101220.88
2023-08-20T01:08:01.050Z,101220.88
2023-08-20T01:11:25.071Z,101233.19
2023-08-20T01:14:17.701Z,101231.50
2023-08-20T01:17:03.672Z,101235.03
2023-08-20T01:19:49.546Z,101240.28
2023-08-20T01:22:47.319Z,101246.41
2023-08-20T01:25:47.252Z,101242.91
2023-08-20T01:28:33.316Z,101245.56
2023-08-20T01:31:20.723Z,101238.59
2023-08-20T01:34:06.224Z,101244.75
2023-08-20T01:36:52.336Z,101249.13
2023-08-20T01:39:38.064Z,101251.63
2023-08-20T01:42:23.951Z,101253.31
2023-08-20T01:45:09.925Z,101264.66
2023-08-20T01:47:55.406Z,101267.22
2023-08-20T01:50:41.472Z,101257.59
2023-08-20T01:53:27.304Z,101256.69
2023-08-20T01:56:14.103Z,101257.56
2023-08-20T01:59:00.057Z,101256.66
2023-08-20T02:01:45.584Z,101268.91
2023-08-20T02:04:31.034Z,101268.97
2023-08-20T02:07:16.699Z,101269.00
2023-08-20T02:10:02.269Z,101273.34
2023-08-20T02:12:48.118Z,101283.84
2023-08-20T02:15:35.546Z,101283.88
2023-08-20T02:18:20.899Z,101282.22
2023-08-20T02:21:06.445Z,101275.31
2023-08-20T02:23:51.901Z,101275.34
2023-08-20T02:26:37.395Z,101281.44
2023-08-20T02:29:23.048Z,101283.22
2023-08-20T02:32:08.327Z,101281.50
2023-08-20T02:34:54.772Z,101286.78
2023-08-20T02:37:42.618Z,101297.31
2023-08-20T02:40:30.812Z,101299.94
2023-08-20T02:43:16.369Z,101312.16
2023-08-20T02:46:01.933Z,101312.13
2023-08-20T02:48:47.273Z,101314.75
2023-08-20T02:51:32.963Z,101311.25
2023-08-20T02:54:18.448Z,101312.16
2023-08-20T02:57:04.164Z,101317.31
2023-08-20T02:59:49.880Z,101311.19
2023-08-20T03:02:35.317Z,101322.53
2023-08-20T03:05:20.783Z,101312.94
2023-08-20T03:08:06.857Z,101316.44
2023-08-20T03:10:52.290Z,101323.44
2023-08-20T03:13:37.848Z,101323.47
2023-08-20T03:16:23.286Z,101330.41
2023-08-20T03:19:09.253Z,101332.16
2023-08-20T03:21:54.572Z,101326.03
2023-08-20T03:24:40.253Z,101333.03
2023-08-20T03:27:25.656Z,101324.28
2023-08-20T03:30:11.446Z,101323.44
2023-08-20T03:32:57.033Z,101327.78
2023-08-20T03:35:43.378Z,101326.94
2023-08-20T03:38:28.769Z,101324.38
2023-08-20T03:41:14.381Z,101319.13
2023-08-20T03:43:59.624Z,101324.38
2023-08-20T03:46:45.014Z,101321.75
2023-08-20T03:49:31.920Z,101323.50
2023-08-20T03:52:17.399Z,101319.16
2023-08-20T03:55:04.032Z,101332.25
2023-08-20T03:57:49.592Z,101333.97
2023-08-20T04:00:37.170Z,101336.59
2023-08-20T04:03:23.195Z,101339.19
2023-08-20T04:06:08.776Z,101335.69
2023-08-20T04:08:56.200Z,101338.28
2023-08-20T04:11:41.638Z,101333.94
2023-08-20T04:14:29.113Z,101348.78
2023-08-20T04:17:14.662Z,101353.09
2023-08-20T04:20:00.148Z,101346.09
2023-08-20T04:22:46.508Z,101355.66
2023-08-20T04:25:32.560Z,101352.16
2023-08-20T04:28:18.744Z,101356.47
2023-08-20T04:31:04.354Z,101358.19
2023-08-20T04:34:03.964Z,101345.03
2023-08-20T04:37:10.733Z,101356.41
2023-08-20T04:39:56.207Z,101346.72
2023-08-20T04:42:42.789Z,101351.94
2023-08-20T04:45:28.237Z,101344.91
2023-08-20T04:48:13.835Z,101346.63
2023-08-20T04:51:01.179Z,101347.44
2023-08-20T04:53:48.526Z,101350.94
2023-08-20T04:56:34.268Z,101349.16
2023-08-20T04:59:19.665Z,101352.66
2023-08-20T05:02:11.084Z,101356.22
2023-08-20T05:05:00.599Z,101348.34
2023-08-20T05:07:46.063Z,101347.53
2023-08-20T05:10:32.608Z,101350.19
2023-08-20T05:13:19.120Z,101349.34
2023-08-20T05:16:04.919Z,101353.78
2023-08-20T05:18:50.336Z,101352.06
2023-08-20T05:21:35.856Z,101353.00
2023-08-20T05:24:21.338Z,101351.25
2023-08-20T05:27:18.469Z,101357.34
2023-08-20T05:30:09.659Z,101370.44
2023-08-20T05:32:55.417Z,101379.16
2023-08-20T05:35:41.849Z,101383.53
2023-08-20T05:38:27.941Z,101380.03
2023-08-20T05:41:13.939Z,101393.13
2023-08-20T05:43:59.459Z,101385.25
2023-08-20T05:46:45.954Z,101390.50
2023-08-20T05:49:32.645Z,101395.69
2023-08-20T05:52:18.315Z,101396.53
2023-08-20T05:55:04.398Z,101391.28
2023-08-20T05:57:49.870Z,101399.13
2023-08-20T06:00:35.298Z,101392.06
2023-08-20T06:03:20.686Z,101397.28
2023-08-20T06:06:08.204Z,101394.63
2023-08-20T06:09:07.081Z,101405.91
2023-08-20T06:11:54.608Z,101406.69
2023-08-20T06:14:40.204Z,101404.88
2023-08-20T06:17:25.718Z,101402.19
2023-08-20T06:20:12.729Z,101402.09
2023-08-20T06:22:58.220Z,101399.41
2023-08-20T06:25:43.612Z,101402.00
2023-08-20T06:28:29.464Z,101395.81
2023-08-20T06:31:14.735Z,101393.09
2023-08-20T06:34:00.249Z,101396.53
2023-08-20T06:36:46.025Z,101395.63
2023-08-20T06:39:31.557Z,101406.09
2023-08-20T06:42:17.283Z,101401.63
2023-08-20T06:45:02.664Z,101402.44
2023-08-20T06:47:48.154Z,101412.84
2023-08-20T06:50:33.784Z,101401.31
2023-08-20T06:53:19.662Z,101405.56
2023-08-20T06:56:05.371Z,101407.19
2023-08-20T06:58:51.797Z,101403.56
2023-08-20T07:01:37.634Z,101407.75
2023-08-20T07:04:23.211Z,101403.03
2023-08-20T07:07:09.274Z,101399.28
2023-08-20T07:09:54.614Z,101399.91
2023-08-20T07:12:40.204Z,101384.84
2023-08-20T07:15:26.018Z,101380.41
2023-08-20T07:18:14.376Z,101375.16
2023-08-20T07:20:59.746Z,101375.22
2023-08-20T07:23:45.152Z,101378.78
2023-08-20T07:26:31.425Z,101384.16
2023-08-20T07:29:17.049Z,101388.53
2023-08-20T07:32:04.492Z,101385.03
2023-08-20T07:34:50.107Z,101392.00
2023-08-20T07:37:35.869Z,101392.78
2023-08-20T07:40:21.753Z,101397.84
2023-08-20T07:43:07.531Z,101394.97
2023-08-20T07:45:53.007Z,101397.44
2023-08-20T07:48:38.860Z,101385.97
2023-08-20T07:51:24.405Z,101394.66
2023-08-20T07:54:10.255Z,101397.31
2023-08-20T07:56:55.948Z,101397.22
2023-08-20T07:59:41.712Z,101398.03
2023-08-20T08:02:27.194Z,101392.69
2023-08-20T08:05:14.022Z,101400.53
2023-08-20T08:07:59.536Z,101392.56
2023-08-20T08:10:46.234Z,101398.56
2023-08-20T08:13:31.842Z,101399.38
2023-08-20T08:16:18.240Z,101398.41
2023-08-20T08:19:03.789Z,101402.69
2023-08-20T08:21:49.736Z,101404.44
2023-08-20T08:24:35.085Z,101400.88
2023-08-20T08:27:20.468Z,101393.00
2023-08-20T08:30:06.832Z,101388.53
2023-08-20T08:32:52.595Z,101405.97
2023-08-20T08:35:38.062Z,101399.59
2023-08-20T08:38:25.313Z,101404.59
2023-08-20T08:41:14.487Z,101412.25
2023-08-20T08:43:59.757Z,101401.69
2023-08-20T08:46:45.484Z,101407.75
2023-08-20T08:49:34.286Z,101406.91
2023-08-20T08:52:20.771Z,101415.56
2023-08-20T08:55:09.397Z,101410.03
2023-08-20T08:57:55.261Z,101403.63
2023-08-20T09:00:40.744Z,101409.50
2023-08-20T09:03:27.362Z,101405.72
2023-08-20T09:06:13.804Z,101396.50
2023-08-20T09:09:07.621Z,101397.09
2023-08-20T09:11:53.226Z,101399.50
2023-08-20T09:14:38.788Z,101396.06
2023-08-20T09:17:27.500Z,101401.22
2023-08-20T09:20:13.287Z,101398.88
2023-08-20T09:22:58.734Z,101395.53
2023-08-20T09:25:45.049Z,101396.41
2023-08-20T09:28:41.291Z,101396.63
2023-08-20T09:31:40.327Z,101409.75
2023-08-20T09:34:25.773Z,101401.69
2023-08-20T09:37:16.146Z,101409.59
2023-08-20T09:40:01.790Z,101404.34
2023-08-20T09:42:48.484Z,101391.06
2023-08-20T09:45:34.369Z,101392.75
2023-08-20T09:48:21.577Z,101377.81
2023-08-20T09:51:12.324Z,101386.38
2023-08-20T09:54:12.687Z,101384.31
2023-08-20T09:57:03.251Z,101383.25
2023-08-20T09:59:49.887Z,101391.75
2023-08-20T10:02:36.313Z,101390.63
2023-08-20T10:05:24.382Z,101386.91
2023-08-20T10:08:10.383Z,101392.91
2023-08-20T10:10:56.244Z,101372.69
2023-08-20T10:13:41.777Z,101389.34
2023-08-20T10:16:29.177Z,101386.56
2023-08-20T10:19:17.760Z,101391.66
2023-08-20T10:22:04.879Z,101393.97
2023-08-20T10:24:54.501Z,101392.78
2023-08-20T10:27:45.460Z,101391.63
2023-08-20T10:30:31.071Z,101399.47
2023-08-20T10:33:19.726Z,101405.88
2023-08-20T10:36:16.968Z,101403.50
2023-08-20T10:39:06.429Z,101411.72
2023-08-20T10:42:10.375Z,101420.03
2023-08-20T10:45:06.603Z,101418.56
2023-08-20T10:47:52.361Z,101423.94
2023-08-20T10:50:38.140Z,101411.47
2023-08-20T10:53:24.451Z,101419.84
2023-08-20T10:56:12.559Z,101410.84
2023-08-20T10:59:14.218Z,101423.88
2023-08-20T11:02:00.552Z,101421.81
2023-08-20T11:04:46.501Z,101410.22
2023-08-20T11:07:33.242Z,101405.53
2023-08-20T11:10:19.131Z,101406.66
2023-08-20T11:13:07.091Z,101408.59
2023-08-20T11:15:52.758Z,101407.75
2023-08-20T11:18:38.184Z,101405.06
2023-08-20T11:21:24.143Z,101410.22
2023-08-20T11:24:10.483Z,101402.03
2023-08-20T11:26:58.608Z,101404.28
2023-08-20T11:29:44.897Z,101399.50
2023-08-20T11:32:32.159Z,101383.19
2023-08-20T11:35:18.267Z,101393.38
2023-08-20T11:38:07.105Z,101395.16
2023-08-20T11:40:53.017Z,101400.53
2023-08-20T11:43:38.781Z,101399.28
2023-08-20T11:46:25.786Z,101403.66
2023-08-20T11:49:12.289Z,101404.13
2023-08-20T11:51:58.181Z,101402.88
2023-08-20T11:54:43.891Z,101397.75
2023-08-20T11:57:31.270Z,101401.69
2023-08-20T12:00:28.995Z,101411.16
2023-08-20T12:03:14.539Z,101403.09
2023-08-20T12:05:59.927Z,101406.16
2023-08-20T12:08:45.343Z,101398.56
2023-08-20T12:11:31.882Z,101396.84
2023-08-20T12:14:21.166Z,101401.25
2023-08-20T12:17:06.664Z,101406.19
2023-08-20T12:19:51.966Z,101403.78
2023-08-20T12:22:37.552Z,101405.00
2023-08-20T12:25:22.951Z,101402.34
2023-08-20T12:28:08.970Z,101396.06
2023-08-20T12:30:54.969Z,101397.16
2023-08-20T12:33:40.536Z,101403.97
2023-08-20T12:36:26.360Z,101404.25
2023-08-20T12:39:12.036Z,101395.00
2023-08-20T12:41:57.584Z,101404.50
2023-08-20T12:44:43.327Z,101410.53
2023-08-20T12:47:28.676Z,101407.81
2023-08-20T12:50:15.407Z,101407.50
2023-08-20T12:53:01.105Z,101398.75
2023-08-20T12:55:46.703Z,101393.28
2023-08-20T12:58:32.488Z,101390.09
2023-08-20T13:01:19.320Z,101393.88
2023-08-20T13:04:05.180Z,101382.66
2023-08-20T13:06:51.062Z,101393.81
2023-08-20T13:09:37.033Z,101393.28
2023-08-20T13:12:28.164Z,101391.22
2023-08-20T13:15:14.319Z,101398.38
2023-08-20T13:18:00.186Z,101398.00
2023-08-20T13:20:45.962Z,101393.81
2023-08-20T13:23:31.518Z,101395.34
2023-08-20T13:26:17.009Z,101397.69
2023-08-20T13:29:02.636Z,101393.88
2023-08-20T13:31:48.426Z,101395.56
2023-08-20T13:34:33.798Z,101398.94
2023-08-20T13:37:19.303Z,101395.97
2023-08-20T13:40:05.968Z,101383.72
2023-08-20T13:42:51.822Z,101398.25
2023-08-20T13:45:37.353Z,101396.69
2023-08-20T13:48:22.811Z,101395.84
2023-08-20T13:51:08.418Z,101394.66
2023-08-20T13:53:54.020Z,101381.84
2023-08-20T13:56:39.424Z,101384.56
2023-08-20T13:59:25.243Z,101388.66
2023-08-20T14:02:10.827Z,101381.69
2023-08-20T14:04:56.455Z,101379.25
2023-08-20T14:07:42.982Z,101380.72
2023-08-20T14:10:28.704Z,101370.91
2023-08-20T14:13:14.909Z,101380.19
2023-08-20T14:16:01.624Z,101373.06
2023-08-20T14:18:47.171Z,101386.56
2023-08-20T14:21:32.587Z,101380.34
2023-08-20T14:24:19.499Z,101375.97
2023-08-20T14:27:04.950Z,101373.69
2023-08-20T14:29:50.231Z,101359.00
2023-08-20T14:32:38.306Z,101364.94
2023-08-20T14:35:26.411Z,101369.44
2023-08-20T14:38:12.394Z,101362.53
2023-08-20T14:41:04.346Z,101367.75
2023-08-20T14:43:50.533Z,101363.78
2023-08-20T14:46:36.172Z,101358.78
2023-08-20T14:49:21.509Z,101353.13
2023-08-20T14:52:19.394Z,101354.59
2023-08-20T14:55:09.544Z,101340.50
2023-08-20T14:57:55.401Z,101344.22
2023-08-20T15:00:41.108Z,101354.31
2023-08-20T15:03:26.524Z,101348.94
2023-08-20T15:06:11.961Z,101340.94
2023-08-20T15:08:57.423Z,101353.81
2023-08-20T15:11:45.969Z,101350.00
2023-08-20T15:14:31.352Z,101351.63
2023-08-20T15:17:16.860Z,101346.53
2023-08-20T15:20:02.192Z,101355.59
2023-08-20T15:22:47.771Z,101348.88
2023-08-20T15:25:33.172Z,101335.47
2023-08-20T15:28:18.654Z,101341.13
2023-08-20T15:31:04.045Z,101339.13
2023-08-20T15:33:49.480Z,101335.53
2023-08-20T15:36:34.847Z,101338.75
2023-08-20T15:39:20.173Z,101350.94
2023-08-20T15:42:06.880Z,101336.13
2023-08-20T15:44:52.706Z,101335.94
2023-08-20T15:47:38.656Z,101337.56
2023-08-20T15:50:24.892Z,101343.44
2023-08-20T15:53:10.511Z,101351.75
2023-08-20T15:55:55.980Z,101341.78
2023-08-20T15:58:41.342Z,101350.53
2023-08-20T16:01:29.116Z,101333.63
2023-08-20T16:04:15.320Z,101335.31
2023-08-20T16:07:00.790Z,101333.63
2023-08-20T16:09:46.229Z,101338.38
2023-08-20T16:12:31.658Z,101336.97
2023-08-20T16:15:17.058Z,101341.53
2023-08-20T16:18:03.019Z,101360.28
2023-08-20T16:20:48.469Z,101362.38
2023-08-20T16:23:33.850Z,101355.09
2023-08-20T16:26:19.328Z,101361.94
2023-08-20T16:29:04.773Z,101364.38
2023-08-20T16:31:50.384Z,101365.66
2023-08-20T16:34:35.857Z,101359.47
2023-08-20T16:37:21.367Z,101359.91
2023-08-20T16:40:09.237Z,101349.69
2023-08-20T16:42:54.996Z,101361.06
2023-08-20T16:45:40.671Z,101360.50
2023-08-20T16:48:26.309Z,101362.75
2023-08-20T16:51:11.872Z,101368.78
2023-08-20T16:53:59.009Z,101366.03
2023-08-20T16:56:44.689Z,101383.16
2023-08-20T16:59:30.234Z,101387.72
2023-08-20T17:02:15.810Z,101384.41
2023-08-20T17:05:01.151Z,101377.22
2023-08-20T17:07:46.417Z,101377.56
2023-08-20T17:10:32.290Z,101381.03
2023-08-20T17:13:18.173Z,101376.78
2023-08-20T17:16:05.068Z,101386.75
2023-08-20T17:18:52.269Z,101379.78
2023-08-20T17:21:39.226Z,101363.06
2023-08-20T17:24:26.478Z,101368.72
2023-08-20T17:27:11.863Z,101375.88
2023-08-20T17:29:57.219Z,101381.88
2023-08-20T17:32:42.818Z,101375.59
2023-08-20T17:35:28.148Z,101381.22
2023-08-20T17:38:15.964Z,101386.28
2023-08-20T17:41:04.821Z,101390.41
2023-08-20T17:43:50.228Z,101391.06
2023-08-20T17:46:49.569Z,101399.25
2023-08-20T17:49:36.331Z,101404.84
2023-08-20T17:52:23.048Z,101398.97
2023-08-20T17:55:09.043Z,101387.88
2023-08-20T17:57:54.386Z,101389.06
2023-08-20T18:00:40.520Z,101393.84
2023-08-20T18:03:26.281Z,101400.69
2023-08-20T18:06:11.606Z,101404.06
2023-08-20T18:08:57.109Z,101403.53
2023-08-20T18:11:42.461Z,101398.66
2023-08-20T18:14:28.138Z,101406.00
2023-08-20T18:17:13.888Z,101396.78
2023-08-20T18:19:59.358Z,101398.41
2023-08-20T18:22:45.158Z,101401.50
2023-08-20T18:25:30.485Z,101408.34
2023-08-20T18:28:17.039Z,101407.34
2023-08-20T18:31:04.103Z,101414.91
2023-08-20T18:33:49.615Z,101417.94
2023-08-20T18:36:35.220Z,101418.38
2023-08-20T18:39:21.436Z,101427.75
2023-08-20T18:42:07.174Z,101430.97
2023-08-20T18:44:52.814Z,101436.50
2023-08-20T18:47:38.343Z,101439.41
2023-08-20T18:50:23.699Z,101425.50
2023-08-20T18:53:09.187Z,101425.94
2023-08-20T18:55:55.117Z,101430.75
2023-08-20T18:58:40.825Z,101439.97
2023-08-20T19:01:28.909Z,101437.72
2023-08-20T19:04:14.257Z,101441.59
2023-08-20T19:06:59.945Z,101448.03
2023-08-20T19:09:45.359Z,101449.94
2023-08-20T19:12:30.814Z,101451.94
2023-08-20T19:15:16.791Z,101446.94
2023-08-20T19:18:02.060Z,101445.41
2023-08-20T19:20:48.656Z,101450.91
2023-08-20T19:23:36.060Z,101449.31
2023-08-20T19:26:23.088Z,101461.00
2023-08-20T19:29:08.566Z,101470.00
2023-08-20T19:31:54.540Z,101472.94
2023-08-20T19:34:39.916Z,101474.00
2023-08-20T19:37:25.389Z,101485.59
2023-08-20T19:40:12.439Z,101483.09
2023-08-20T19:42:57.866Z,101488.59
2023-08-20T19:45:43.295Z,101486.16
2023-08-20T19:48:29.283Z,101491.56
2023-08-20T19:51:14.765Z,101503.09
2023-08-20T19:54:00.257Z,101504.19
2023-08-20T19:56:45.721Z,101510.44
2023-08-20T19:59:31.180Z,101510.63
2023-08-20T20:02:16.653Z,101522.22
2023-08-20T20:05:02.169Z,101514.53
2023-08-20T20:07:48.109Z,101524.41
2023-08-20T20:10:33.701Z,101529.00
2023-08-20T20:13:19.106Z,101530.94
2023-08-20T20:16:05.517Z,101527.59
2023-08-20T20:18:51.208Z,101532.97
2023-08-20T20:21:37.585Z,101526.03
2023-08-20T20:24:23.409Z,101534.00
2023-08-20T20:27:09.743Z,101542.00
2023-08-20T20:29:55.367Z,101542.03
2023-08-20T20:32:41.705Z,101541.19
2023-08-20T20:35:31.122Z,101530.69
2023-08-20T20:38:17.175Z,101552.63
2023-08-20T20:41:03.547Z,101555.31
2023-08-20T20:43:49.278Z,101554.47
2023-08-20T20:46:34.881Z,101551.94
2023-08-20T20:49:20.426Z,101557.22
2023-08-20T20:52:06.661Z,101559.84
2023-08-20T20:54:52.142Z,101552.03
2023-08-20T20:57:37.596Z,101544.25
2023-08-20T21:00:23.136Z,101542.59
2023-08-20T21:03:08.986Z,101544.38
2023-08-20T21:05:54.337Z,101542.69
2023-08-20T21:08:39.980Z,101550.59
2023-08-20T21:11:25.862Z,101557.66
2023-08-20T21:14:11.457Z,101567.38
2023-08-20T21:16:56.954Z,101567.44
2023-08-20T21:19:42.417Z,101567.44
2023-08-20T21:22:27.822Z,101564.00
2023-08-20T21:25:13.266Z,101567.50
2023-08-20T21:27:59.098Z,101566.69
2023-08-20T21:30:44.460Z,101575.47
2023-08-20T21:33:30.493Z,101584.19
2023-08-20T21:36:16.291Z,101589.41
2023-08-20T21:39:01.947Z,101585.03
2023-08-20T21:41:47.490Z,101593.78
2023-08-20T21:44:33.261Z,101583.28
2023-08-20T21:47:23.992Z,101592.03
2023-08-20T21:50:09.975Z,101587.72
2023-08-20T21:52:55.638Z,101582.47
2023-08-20T21:55:41.118Z,101580.78
2023-08-20T21:58:26.572Z,101584.31
2023-08-20T22:01:12.273Z,101582.63
2023-08-20T22:03:58.016Z,101576.53
2023-08-20T22:06:43.510Z,101574.81
2023-08-20T22:09:29.512Z,101577.47
2023-08-20T22:12:15.345Z,101567.84
2023-08-20T22:15:01.309Z,101579.25
2023-08-20T22:17:46.744Z,101581.88
2023-08-20T22:20:33.131Z,101581.00
2023-08-20T22:23:19.969Z,101584.50
2023-08-20T22:26:06.180Z,101591.50
2023-08-20T22:28:51.870Z,101594.16
2023-08-20T22:31:37.345Z,101597.66
2023-08-20T22:34:22.901Z,101603.75
2023-08-20T22:37:08.427Z,101594.94
2023-08-20T22:39:53.702Z,101605.41
2023-08-20T22:42:39.375Z,101607.09
2023-08-20T22:45:25.096Z,101597.41
2023-08-20T22:48:10.543Z,101599.94
2023-08-20T22:50:56.127Z,101598.16
2023-08-20T22:53:41.550Z,101596.38
2023-08-20T22:56:27.125Z,101606.03
2023-08-20T22:59:13.512Z,101600.69
2023-08-20T23:01:59.136Z,101608.59
2023-08-20T23:04:44.561Z,101598.88
2023-08-20T23:07:29.984Z,101597.91
2023-08-20T23:10:15.462Z,101598.75
2023-08-20T23:13:00.903Z,101596.16
2023-08-20T23:15:46.334Z,101587.31
2023-08-20T23:18:31.887Z,101596.13
2023-08-20T23:21:17.304Z,101603.13
2023-08-20T23:24:02.898Z,101604.00
2023-08-20T23:26:48.294Z,101605.78
2023-08-20T23:29:33.728Z,101600.53
2023-08-20T23:32:19.243Z,101597.94
2023-08-20T23:35:05.110Z,101598.78
2023-08-20T23:37:51.237Z,101596.16
2023-08-20T23:40:36.870Z,101602.31
2023-08-20T23:43:23.291Z,101602.28
2023-08-20T23:46:09.418Z,101599.69
2023-08-20T23:48:54.638Z,101593.53
2023-08-20T23:51:40.106Z,101591.81
2023-08-20T23:54:27.029Z,101590.94
2023-08-20T23:57:12.295Z,101588.28
2023-08-20T23:59:57.552Z,101590.03
